createdAt,value
2018-05-24T00:00:50.202Z,26.40
2018-05-24T00:03:22.123Z,26.10
2018-05-24T00:05:52.822Z,27.13
2018-05-24T00:08:20.846Z,26.27
2018-05-24T00:10:53.485Z,26.67
2018-05-24T00:13:23.482Z,27.93
2018-05-24T00:15:51.530Z,28.10
2018-05-24T00:18:20.574Z,28.37
2018-05-24T00:20:51.279Z,26.80
2018-05-24T00:23:24.802Z,27.60
2018-05-24T00:25:53.586Z,28.27
2018-05-24T00:28:22.391Z,26.07
2018-05-24T00:30:56.653Z,26.97
2018-05-24T00:33:28.706Z,29.50
2018-05-24T00:35:57.657Z,29.47
2018-05-24T00:38:25.677Z,31.10
2018-05-24T00:40:54.688Z,30.63
2018-05-24T00:43:22.774Z,30.23
2018-05-24T00:45:51.564Z,33.00
2018-05-24T00:48:23.708Z,32.13
2018-05-24T00:50:55.353Z,31.10
2018-05-24T00:53:29.129Z,29.23
2018-05-24T00:55:58.160Z,32.43
2018-05-24T00:58:27.165Z,31.27
2018-05-24T01:00:57.001Z,30.57
2018-05-24T01:03:26.969Z,31.27
2018-05-24T01:05:54.994Z,32.90
2018-05-24T01:08:28.448Z,33.17
2018-05-24T01:13:53.661Z,31.73
2018-05-24T01:16:29.809Z,30.70
2018-05-24T01:19:03.616Z,30.90
2018-05-24T01:21:35.569Z,29.50
2018-05-24T01:24:03.620Z,30.10
2018-05-24T01:26:34.924Z,30.30
2018-05-24T01:29:02.965Z,31.93
2018-05-24T01:31:41.865Z,30.97
2018-05-24T01:34:15.793Z,29.87
2018-05-24T01:36:57.697Z,30.83
2018-05-24T01:39:29.513Z,29.70
2018-05-24T01:41:58.578Z,29.83
2018-05-24T01:44:30.849Z,28.80
2018-05-24T01:47:01.641Z,30.03
2018-05-24T01:49:29.657Z,29.07
2018-05-24T01:51:58.477Z,28.50
2018-05-24T01:54:26.501Z,30.67
2018-05-24T01:57:00.525Z,27.60
2018-05-24T01:59:31.249Z,30.77
2018-05-24T02:02:09.245Z,30.23
2018-05-24T02:04:42.246Z,30.07
2018-05-24T02:07:11.073Z,28.83
2018-05-24T02:09:40.094Z,28.80
2018-05-24T02:12:10.122Z,29.57
2018-05-24T02:14:40.049Z,28.47
2018-05-24T02:17:09.049Z,28.07
2018-05-24T02:19:43.573Z,31.43
2018-05-24T02:22:16.333Z,29.47
2018-05-24T02:24:44.765Z,29.23
2018-05-24T02:27:16.997Z,31.50
2018-05-24T02:29:48.845Z,29.43
2018-05-24T02:32:24.251Z,31.70
2018-05-24T02:34:52.309Z,32.63
2018-05-24T02:37:20.329Z,29.40
2018-05-24T02:39:48.353Z,31.53
2018-05-24T02:42:20.361Z,31.13
2018-05-24T02:44:49.341Z,31.57
2018-05-24T02:47:17.374Z,31.07
2018-05-24T02:49:46.333Z,30.40
2018-05-24T02:52:16.105Z,28.93
2018-05-24T02:54:47.298Z,30.13
2018-05-24T02:57:19.953Z,31.23
2018-05-24T02:59:53.554Z,33.23
2018-05-24T03:02:21.578Z,32.23
2018-05-24T03:04:51.541Z,33.37
2018-05-24T03:07:23.921Z,33.73
2018-05-24T03:09:54.642Z,32.40
2018-05-24T03:12:26.302Z,36.53
2018-05-24T03:14:55.285Z,35.20
2018-05-24T03:17:23.313Z,34.43
2018-05-24T03:19:53.281Z,35.50
2018-05-24T03:22:22.062Z,36.20
2018-05-24T03:24:51.062Z,37.20
2018-05-24T03:27:19.081Z,33.87
2018-05-24T03:29:51.801Z,34.00
2018-05-24T03:32:19.853Z,33.73
2018-05-24T03:34:47.894Z,34.27
2018-05-24T03:37:16.829Z,35.50
2018-05-24T03:39:46.833Z,32.57
2018-05-24T03:42:23.081Z,31.90
2018-05-24T03:44:53.045Z,32.90
2018-05-24T03:47:21.872Z,32.03
2018-05-24T03:49:55.621Z,31.93
2018-05-24T03:52:24.581Z,32.20
2018-05-24T03:54:52.622Z,33.97
2018-05-24T03:57:22.589Z,30.70
2018-05-24T04:00:03.160Z,30.07
2018-05-24T04:02:43.784Z,27.70
2018-05-24T04:05:16.604Z,26.33
2018-05-24T04:07:48.173Z,26.10
2018-05-24T04:10:20.834Z,29.27
2018-05-24T04:12:48.885Z,27.80
2018-05-24T04:15:18.928Z,29.10
2018-05-24T04:17:46.961Z,26.07
2018-05-24T04:20:19.477Z,25.87
2018-05-24T04:22:53.800Z,22.37
2018-05-24T04:25:22.617Z,24.80
2018-05-24T04:27:53.916Z,22.53
2018-05-24T04:30:22.949Z,19.20
2018-05-24T04:32:51.709Z,18.30
2018-05-24T04:35:21.497Z,17.27
2018-05-24T04:37:49.548Z,21.07
2018-05-24T04:40:30.010Z,21.10
2018-05-24T04:43:03.072Z,20.97
2018-05-24T04:45:33.079Z,21.50
2018-05-24T04:48:04.692Z,21.60
2018-05-24T04:50:33.688Z,21.10
2018-05-24T04:53:02.677Z,21.00
2018-05-24T04:55:31.337Z,20.63
2018-05-24T04:58:01.267Z,20.77
2018-05-24T05:00:34.380Z,22.10
2018-05-24T05:03:04.368Z,20.60
2018-05-24T05:05:32.381Z,21.90
2018-05-24T05:08:03.076Z,22.43
2018-05-24T05:10:32.065Z,22.00
2018-05-24T05:13:03.836Z,20.50
2018-05-24T05:15:31.857Z,21.23
2018-05-24T05:17:59.872Z,19.80
2018-05-24T05:20:27.908Z,18.47
2018-05-24T05:22:56.924Z,22.37
2018-05-24T05:25:25.931Z,18.97
2018-05-24T05:27:53.956Z,17.73
2018-05-24T05:30:29.160Z,18.47
2018-05-24T05:33:08.320Z,19.60
2018-05-24T05:35:42.432Z,19.47
2018-05-24T05:38:11.515Z,20.33
2018-05-24T05:40:44.136Z,19.07
2018-05-24T05:43:17.949Z,18.20
2018-05-24T05:45:54.377Z,17.87
2018-05-24T05:48:24.076Z,18.87
2018-05-24T05:50:54.021Z,15.60
2018-05-24T05:53:23.026Z,15.80
2018-05-24T05:55:51.957Z,14.50
2018-05-24T05:58:23.268Z,14.20
2018-05-24T06:00:54.917Z,14.33
2018-05-24T06:03:46.608Z,15.33
2018-05-24T06:06:16.370Z,12.30
2018-05-24T06:08:46.364Z,12.60
2018-05-24T06:11:30.873Z,8.63
2018-05-24T06:14:11.485Z,12.87
2018-05-24T06:17:03.589Z,10.57
2018-05-24T06:19:31.625Z,9.20
2018-05-24T06:22:04.133Z,9.13
2018-05-24T06:24:32.141Z,7.20
2018-05-24T06:27:00.381Z,7.00
2018-05-24T06:38:31.220Z,7.93
2018-05-24T06:41:02.373Z,8.10
2018-05-24T06:43:31.325Z,6.83
2018-05-24T06:46:02.803Z,6.97
2018-05-24T06:48:35.657Z,6.77
2018-05-24T06:51:08.302Z,8.97
2018-05-24T06:53:36.361Z,7.37
2018-05-24T06:56:05.976Z,6.10
2018-05-24T06:58:39.307Z,6.00
2018-05-24T07:01:09.584Z,6.90
2018-05-24T07:03:37.605Z,8.57
2018-05-24T07:06:07.590Z,6.30
2018-05-24T07:08:36.944Z,5.33
2018-05-24T07:11:05.052Z,6.70
2018-05-24T07:13:32.988Z,7.43
2018-05-24T07:16:13.656Z,7.50
2018-05-24T07:18:43.656Z,9.03
2018-05-24T07:21:13.665Z,11.40
2018-05-24T07:26:39.936Z,10.30
2018-05-24T07:29:08.881Z,13.30
2018-05-24T07:31:42.545Z,12.27
2018-05-24T07:34:16.532Z,12.37
2018-05-24T07:36:45.481Z,12.03
2018-05-24T07:39:20.401Z,12.10
2018-05-24T07:41:52.760Z,11.97
2018-05-24T07:44:22.764Z,12.03
2018-05-24T07:46:53.528Z,11.73
2018-05-24T07:49:21.556Z,12.03
2018-05-24T07:51:51.568Z,12.00
2018-05-24T07:54:43.096Z,11.50
2018-05-24T07:57:25.100Z,11.73
2018-05-24T07:59:59.740Z,11.90
2018-05-24T08:02:28.696Z,13.97
2018-05-24T08:05:01.182Z,12.00
2018-05-24T08:07:32.240Z,12.73
2018-05-24T08:10:03.832Z,14.00
2018-05-24T08:12:33.788Z,12.87
2018-05-24T08:15:02.712Z,14.63
2018-05-24T08:17:32.837Z,14.73
2018-05-24T08:22:56.491Z,13.80
2018-05-24T08:25:32.936Z,13.30
2018-05-24T08:28:02.964Z,13.47
2018-05-24T08:30:54.228Z,13.20
2018-05-24T08:36:24.496Z,11.20
2018-05-24T08:41:46.786Z,8.90
2018-05-24T08:47:15.954Z,6.43
2018-05-24T08:49:47.008Z,7.60
2018-05-24T09:07:24.564Z,9.20
2018-05-24T09:15:56.376Z,11.20
2018-05-24T09:21:17.472Z,13.13
2018-05-24T09:32:28.172Z,11.67
2018-05-24T09:43:49.820Z,15.43
2018-05-24T09:54:59.463Z,11.87
2018-05-24T09:57:33.773Z,12.40
2018-05-24T10:00:10.204Z,12.50
2018-05-24T10:02:58.512Z,12.33
2018-05-24T10:05:34.004Z,13.03
2018-05-24T10:11:01.968Z,14.93
2018-05-24T10:13:39.015Z,14.47
2018-05-24T10:16:14.599Z,17.80
2018-05-24T10:18:46.927Z,17.13
2018-05-24T10:21:33.346Z,15.03
2018-05-24T10:24:25.652Z,14.60
2018-05-24T10:30:04.875Z,20.60
2018-05-24T10:32:33.959Z,16.87
2018-05-24T10:35:21.126Z,16.23
2018-05-24T10:43:38.476Z,17.77
2018-05-24T10:49:01.807Z,16.20
2018-05-24T10:51:33.675Z,16.40
2018-05-24T10:54:12.887Z,15.27
2018-05-24T10:56:51.863Z,15.87
2018-05-24T11:02:32.743Z,14.83
2018-05-24T11:05:02.771Z,15.77
2018-05-24T11:07:33.151Z,15.53
2018-05-24T11:10:06.883Z,18.90
2018-05-24T11:15:34.519Z,17.30
2018-05-24T11:18:04.555Z,17.27
2018-05-24T11:20:34.507Z,20.17
2018-05-24T11:23:02.863Z,19.60
2018-05-24T11:25:33.847Z,20.47
2018-05-24T11:28:10.223Z,21.60
2018-05-24T11:30:47.282Z,19.97
2018-05-24T11:33:16.458Z,20.80
2018-05-24T11:35:45.400Z,20.80
2018-05-24T11:38:26.535Z,21.90
2018-05-24T11:40:56.587Z,19.50
2018-05-24T11:43:25.728Z,21.00
2018-05-24T11:45:55.708Z,19.00
2018-05-24T11:48:26.016Z,20.70
2018-05-24T11:51:12.754Z,19.57
2018-05-24T11:53:48.946Z,17.47
2018-05-24T11:56:22.262Z,15.87
2018-05-24T11:58:57.703Z,15.23
2018-05-24T12:01:25.775Z,13.57
2018-05-24T12:03:54.746Z,14.13
2018-05-24T12:06:22.770Z,16.77
2018-05-24T12:09:03.511Z,15.17
2018-05-24T12:11:36.385Z,14.77
2018-05-24T12:14:04.627Z,14.60
2018-05-24T12:16:34.602Z,16.80
2018-05-24T12:19:07.215Z,15.23
2018-05-24T12:21:40.578Z,14.83
2018-05-24T12:24:14.246Z,12.10
2018-05-24T12:26:48.864Z,13.67
2018-05-24T12:29:16.939Z,13.30
2018-05-24T12:31:45.942Z,14.30
2018-05-24T12:34:18.194Z,14.10
2018-05-24T12:36:49.222Z,14.13
2018-05-24T12:39:29.066Z,13.57
2018-05-24T12:41:58.850Z,10.60
2018-05-24T12:44:28.815Z,8.50
2018-05-24T12:46:58.802Z,8.93
2018-05-24T12:49:27.798Z,8.40
2018-05-24T12:52:00.294Z,6.27
2018-05-24T12:54:35.899Z,6.80
2018-05-24T12:57:18.706Z,6.03
2018-05-24T12:59:50.114Z,5.80
2018-05-24T13:02:19.258Z,8.17
2018-05-24T13:04:49.906Z,8.63
2018-05-24T13:07:19.944Z,7.60
2018-05-24T13:09:48.976Z,6.80
2018-05-24T13:12:17.726Z,7.73
2018-05-24T13:14:46.713Z,7.43
2018-05-24T13:17:19.274Z,7.60
2018-05-24T13:19:52.378Z,7.77
2018-05-24T13:22:21.362Z,7.87
2018-05-24T13:24:49.367Z,5.77
2018-05-24T13:27:18.166Z,6.40
2018-05-24T13:29:48.846Z,5.23
2018-05-24T13:32:16.866Z,5.80
2018-05-24T13:34:45.666Z,5.93
2018-05-24T13:37:18.698Z,5.50
2018-05-24T13:39:55.242Z,4.90
2018-05-24T13:42:26.854Z,6.23
2018-05-24T13:44:55.991Z,4.43
2018-05-24T13:47:25.918Z,5.00
2018-05-24T13:49:58.003Z,8.33
2018-05-24T13:52:27.667Z,5.60
2018-05-24T13:55:01.342Z,5.00
2018-05-24T13:57:44.334Z,4.30
2018-05-24T14:00:19.913Z,3.33
2018-05-24T14:02:49.706Z,3.87
2018-05-24T14:05:18.682Z,4.47
2018-05-24T14:07:53.330Z,4.30
2018-05-24T14:10:22.086Z,3.97
2018-05-24T14:12:51.118Z,4.50
2018-05-24T14:15:20.843Z,4.73
2018-05-24T14:17:50.614Z,4.90
2018-05-24T14:20:21.346Z,6.40
2018-05-24T14:22:55.314Z,4.03
2018-05-24T14:25:25.257Z,4.00
2018-05-24T14:27:57.119Z,4.70
2018-05-24T14:30:30.114Z,3.97
2018-05-24T14:32:58.114Z,4.03
2018-05-24T14:35:26.885Z,4.13
2018-05-24T14:37:54.903Z,3.83
2018-05-24T14:40:31.082Z,3.40
2018-05-24T14:42:59.089Z,4.00
2018-05-24T14:45:30.186Z,3.53
2018-05-24T14:48:00.134Z,4.00
2018-05-24T14:50:34.773Z,4.40
2018-05-24T14:53:29.598Z,4.13
2018-05-24T14:56:04.050Z,4.40
2018-05-24T14:58:34.006Z,4.50
2018-05-24T15:01:02.029Z,6.13
2018-05-24T15:03:33.710Z,5.00
2018-05-24T15:06:02.122Z,3.70
2018-05-24T15:08:30.310Z,5.10
2018-05-24T15:11:13.258Z,4.83
2018-05-24T15:13:50.206Z,5.30
2018-05-24T15:16:19.170Z,4.30
2018-05-24T15:19:04.982Z,5.53
2018-05-24T15:21:33.930Z,5.13
2018-05-24T15:24:01.951Z,5.00
2018-05-24T15:26:29.953Z,5.27
2018-05-24T15:28:58.971Z,5.60
2018-05-24T15:31:26.985Z,5.70
2018-05-24T15:33:54.993Z,7.53
2018-05-24T15:36:36.041Z,4.93
2018-05-24T15:39:07.318Z,5.20
2018-05-24T15:41:36.322Z,4.37
2018-05-24T15:44:05.313Z,4.17
2018-05-24T15:46:37.674Z,3.57
2018-05-24T15:49:05.762Z,3.83
2018-05-24T15:51:36.923Z,2.67
2018-05-24T15:54:09.413Z,3.17
2018-05-24T15:56:40.405Z,2.60
2018-05-24T15:59:16.029Z,3.80
2018-05-24T16:01:44.053Z,3.10
2018-05-24T16:04:15.801Z,3.77
2018-05-24T16:06:47.633Z,2.33
2018-05-24T16:09:21.153Z,2.47
2018-05-24T16:12:01.389Z,2.50
2018-05-24T16:14:35.221Z,5.30
2018-05-24T16:17:12.257Z,3.13
2018-05-24T16:19:44.745Z,3.40
2018-05-24T16:22:18.633Z,5.67
2018-05-24T16:24:47.673Z,2.40
2018-05-24T16:27:17.681Z,2.83
2018-05-24T16:29:46.650Z,2.63
2018-05-24T16:32:20.737Z,3.73
2018-05-24T16:34:51.845Z,3.53
2018-05-24T16:37:24.717Z,4.97
2018-05-24T16:40:05.258Z,2.73
2018-05-24T16:42:47.505Z,3.37
2018-05-24T16:48:20.334Z,5.17
2018-05-24T16:51:06.562Z,7.27
2018-05-24T16:56:41.830Z,3.93
2018-05-24T17:02:28.597Z,3.60
2018-05-24T17:05:06.130Z,3.70
2018-05-24T17:10:31.469Z,3.97
2018-05-24T17:13:12.685Z,3.70
2018-05-24T17:15:42.454Z,4.53
2018-05-24T17:21:24.986Z,6.00
2018-05-24T17:29:46.146Z,3.73
2018-05-24T17:32:22.170Z,6.43
2018-05-24T17:37:47.209Z,4.50
2018-05-24T17:43:21.889Z,4.20
2018-05-24T17:51:54.904Z,5.40
2018-05-24T17:54:33.869Z,4.73
2018-05-24T17:57:12.716Z,5.23
2018-05-24T18:00:04.722Z,6.67
2018-05-24T18:02:32.760Z,5.50
2018-05-24T18:05:05.605Z,5.60
2018-05-24T18:10:30.420Z,5.87
2018-05-24T18:13:22.009Z,10.50
2018-05-24T18:15:53.697Z,7.07
2018-05-24T18:35:45.749Z,6.10
2018-05-24T18:41:27.277Z,8.13
2018-05-24T18:44:01.321Z,7.80
2018-05-24T18:46:31.117Z,7.33
2018-05-24T18:49:19.749Z,7.83
2018-05-24T18:51:54.761Z,10.30
2018-05-24T18:57:19.690Z,10.27
2018-05-24T19:00:01.905Z,7.87
2018-05-24T19:02:42.944Z,8.87
2018-05-24T19:08:12.732Z,8.93
2018-05-24T19:10:55.549Z,8.80
2018-05-24T19:16:37.989Z,11.27
2018-05-24T19:19:06.929Z,11.13
2018-05-24T19:21:38.685Z,10.83
2018-05-24T19:24:19.825Z,10.07
2018-05-24T19:26:48.917Z,11.87
2018-05-24T19:29:17.081Z,13.20
2018-05-24T19:32:03.052Z,13.27
2018-05-24T19:34:33.001Z,12.33
2018-05-24T19:37:01.037Z,12.57
2018-05-24T19:39:31.745Z,12.70
2018-05-24T19:42:01.754Z,13.17
2018-05-24T19:44:30.741Z,13.73
2018-05-24T19:47:03.741Z,14.53
2018-05-24T19:49:39.449Z,12.83
2018-05-24T19:52:08.473Z,12.33
2018-05-24T19:54:50.801Z,12.60
2018-05-24T19:57:39.161Z,15.00
2018-05-24T20:00:09.153Z,13.30
2018-05-24T20:02:38.129Z,14.03
2018-05-24T20:05:09.777Z,13.80
2018-05-24T20:07:39.812Z,13.10
2018-05-24T20:10:11.697Z,13.37
2018-05-24T20:12:40.493Z,16.80
2018-05-24T20:15:12.821Z,13.97
2018-05-24T20:17:42.849Z,14.63
2018-05-24T20:20:10.905Z,14.57
2018-05-24T20:22:38.937Z,13.63
2018-05-24T20:25:08.700Z,14.40
2018-05-24T20:27:41.204Z,15.10
2018-05-24T20:30:13.248Z,17.03
2018-05-24T20:32:48.125Z,14.47
2018-05-24T20:35:18.084Z,15.80
2018-05-24T20:37:51.175Z,14.90
2018-05-24T20:40:19.185Z,15.43
2018-05-24T20:42:48.223Z,16.13
2018-05-24T20:45:27.443Z,16.93
2018-05-24T20:47:57.475Z,19.13
2018-05-24T20:50:37.049Z,17.53
2018-05-24T20:53:14.887Z,16.33
2018-05-24T20:55:43.923Z,25.33
2018-05-24T20:58:13.747Z,20.83
2018-05-24T21:00:43.524Z,20.60
2018-05-24T21:03:21.291Z,17.27
2018-05-24T21:05:49.331Z,18.03
2018-05-24T21:08:19.307Z,16.13
2018-05-24T21:10:47.327Z,16.87
2018-05-24T21:13:17.324Z,19.63
2018-05-24T21:15:46.139Z,16.00
2018-05-24T21:18:16.115Z,18.90
2018-05-24T21:20:44.139Z,17.10
2018-05-24T21:23:12.167Z,17.67
2018-05-24T21:25:40.975Z,17.10
2018-05-24T21:28:08.992Z,21.23
2018-05-24T21:30:43.343Z,21.03
2018-05-24T21:33:16.975Z,22.33
2018-05-24T21:35:45.761Z,18.63
2018-05-24T21:38:35.663Z,21.97
2018-05-24T21:41:03.707Z,19.73
2018-05-24T21:43:31.738Z,27.70
2018-05-24T21:45:59.763Z,18.90
2018-05-24T21:48:35.635Z,17.57
2018-05-24T21:51:03.673Z,17.30
2018-05-24T21:53:39.340Z,17.20
2018-05-24T21:56:09.268Z,15.60
2018-05-24T21:58:40.735Z,15.43
2018-05-24T22:01:08.791Z,16.60
2018-05-24T22:03:40.379Z,16.67
2018-05-24T22:06:10.188Z,17.60
2018-05-24T22:08:40.928Z,17.33
2018-05-24T22:11:09.724Z,17.40
2018-05-24T22:13:39.504Z,18.80
2018-05-24T22:16:07.540Z,18.63
2018-05-24T22:18:39.960Z,19.33
2018-05-24T22:21:26.409Z,20.17
2018-05-24T22:24:05.752Z,19.50
2018-05-24T22:29:34.708Z,19.07
2018-05-24T22:35:06.428Z,19.10
2018-05-24T22:38:00.236Z,21.03
2018-05-24T22:40:40.688Z,21.10
2018-05-24T22:43:19.823Z,21.80
2018-05-24T22:45:56.808Z,19.47
2018-05-24T22:48:36.323Z,20.50
2018-05-24T22:54:02.395Z,19.80
2018-05-24T22:56:30.407Z,21.33
2018-05-24T22:59:00.375Z,20.63
2018-05-24T23:01:29.367Z,23.80
2018-05-24T23:03:57.399Z,21.83
2018-05-24T23:06:25.427Z,23.30
2018-05-24T23:08:54.351Z,22.40
2018-05-24T23:11:25.755Z,20.80
2018-05-24T23:13:58.140Z,22.57
2018-05-24T23:16:31.317Z,21.30
2018-05-24T23:19:16.831Z,23.10
2018-05-24T23:21:57.827Z,22.60
2018-05-24T23:24:33.880Z,21.93
2018-05-24T23:27:16.396Z,21.13
2018-05-24T23:32:40.428Z,22.53
2018-05-24T23:35:30.275Z,22.30
2018-05-24T23:38:08.119Z,21.67
2018-05-24T23:40:39.255Z,21.83
2018-05-24T23:43:11.400Z,23.20
2018-05-24T23:45:39.427Z,23.07
2018-05-24T23:48:07.460Z,22.03
2018-05-24T23:50:38.192Z,23.37
2018-05-24T23:56:24.188Z,22.73
2018-05-24T23:58:54.224Z,24.50
